Time;durP1;ratioP1;P1;durP2;ratioP2;P2;SDS_P1;SDS_P2;PMS_P1;PMS_P2;Temp;Humidity;BMP_temperature;BMP_pressure;BME280_temperature;BME280_humidity;BME280_pressure;Samples;Min_cycle;Max_cycle;Signal;HPM_P1;HPM_P2
2022/01/01 00:02:25;;;;;;;54.13;34.20;;;-0.30;99.90;;;;;;4980680;28;20031;-78
2022/01/01 00:04:52;;;;;;;56.38;35.05;;;-0.30;99.90;;;;;;4987934;28;20036;-84
2022/01/01 00:07:18;;;;;;;51.13;32.58;;;-0.20;99.90;;;;;;4997602;28;20022;-79
2022/01/01 00:09:44;;;;;;;51.95;32.60;;;-0.20;99.90;;;;;;4984672;28;20033;-80
2022/01/01 00:12:11;;;;;;;49.88;33.50;;;-0.20;99.90;;;;;;4991676;28;20563;-81
2022/01/01 00:14:38;;;;;;;47.95;32.53;;;-0.20;99.90;;;;;;5000664;28;20034;-78
2022/01/01 00:17:08;;;;;;;48.63;32.33;;;-0.20;99.90;;;;;;5004035;28;20030;-79
2022/01/01 00:19:34;;;;;;;48.45;32.38;;;-0.20;99.90;;;;;;4995132;28;20288;-80
2022/01/01 00:22:02;;;;;;;49.45;32.45;;;-0.20;99.90;;;;;;4989930;28;20432;-78
2022/01/01 00:24:28;;;;;;;49.72;29.48;;;-0.20;99.90;;;;;;4988499;28;20117;-78
2022/01/01 00:26:54;;;;;;;51.78;31.58;;;-0.20;99.90;;;;;;4994511;28;20516;-80
2022/01/01 00:29:19;;;;;;;53.13;33.88;;;-0.20;99.90;;;;;;4995132;28;20037;-80
2022/01/01 00:31:46;;;;;;;48.97;31.65;;;-0.20;99.90;;;;;;5004362;28;20023;-79
2022/01/01 00:34:13;;;;;;;49.67;31.83;;;-0.10;99.90;;;;;;5007459;28;20106;-79
2022/01/01 00:36:39;;;;;;;44.22;27.80;;;-0.10;99.90;;;;;;5009632;28;20018;-82
2022/01/01 00:39:05;;;;;;;46.10;27.75;;;-0.10;99.90;;;;;;5000723;28;20081;-80
2022/01/01 00:41:32;;;;;;;38.05;24.67;;;-0.10;99.90;;;;;;4989621;28;20023;-80
2022/01/01 00:43:58;;;;;;;39.78;24.75;;;-0.10;99.90;;;;;;4997710;28;20018;-81
2022/01/01 00:46:24;;;;;;;38.95;25.17;;;-0.10;99.90;;;;;;4999525;28;20030;-81
2022/01/01 00:48:53;;;;;;;41.50;26.20;;;-0.10;99.90;;;;;;4995500;28;20052;-80
2022/01/01 00:51:22;;;;;;;40.72;26.17;;;-0.10;99.90;;;;;;4994606;28;20045;-81
2022/01/01 00:53:48;;;;;;;36.38;24.38;;;-0.10;99.90;;;;;;4994619;28;20060;-80
2022/01/01 00:56:14;;;;;;;41.35;24.60;;;-0.10;99.90;;;;;;4994407;28;20077;-80
2022/01/01 00:58:40;;;;;;;37.50;23.83;;;-0.10;99.90;;;;;;4983979;28;20051;-80
2022/01/01 01:01:07;;;;;;;32.17;21.67;;;-0.10;99.90;;;;;;4978241;28;20042;-79
2022/01/01 01:03:33;;;;;;;29.98;23.10;;;-0.10;99.90;;;;;;4995028;28;20491;-80
2022/01/01 01:06:01;;;;;;;32.85;21.73;;;-0.10;99.90;;;;;;4992464;28;20060;-81
2022/01/01 01:08:27;;;;;;;;;;;0.00;99.90;;;;;;4992815;28;20019;-80
2022/01/01 01:10:53;;;;;;;33.40;21.30;;;0.00;99.90;;;;;;4983321;28;19906;-80
2022/01/01 01:13:20;;;;;;;29.88;18.10;;;-0.10;99.90;;;;;;4990850;28;20035;-80
2022/01/01 01:15:46;;;;;;;;;;;0.00;99.90;;;;;;4993910;28;20022;-81
2022/01/01 01:18:12;;;;;;;32.85;18.80;;;0.00;99.90;;;;;;4993570;28;19906;-80
2022/01/01 01:20:39;;;;;;;25.13;17.23;;;-0.10;99.90;;;;;;4992889;28;20037;-80
2022/01/01 01:23:05;;;;;;;30.00;18.05;;;-0.10;99.90;;;;;;4993876;28;20029;-79
2022/01/01 01:25:38;;;;;;;27.10;18.00;;;0.00;99.90;;;;;;4993591;28;20046;-81
2022/01/01 01:28:07;;;;;;;27.63;18.52;;;0.00;99.90;;;;;;4996760;28;20022;-79
2022/01/01 01:30:34;;;;;;;31.30;19.48;;;0.00;99.90;;;;;;4989824;28;20029;-80
2022/01/01 01:33:00;;;;;;;26.50;18.23;;;0.00;99.90;;;;;;4986708;28;20026;-78
2022/01/01 01:35:26;;;;;;;26.20;16.95;;;0.10;99.90;;;;;;4992859;28;20494;-78
2022/01/01 01:37:52;;;;;;;21.23;16.25;;;0.10;99.90;;;;;;4992700;28;20023;-80
2022/01/01 01:40:17;;;;;;;23.42;16.33;;;0.10;99.90;;;;;;4993181;28;20470;-79
2022/01/01 01:42:44;;;;;;;22.63;15.93;;;0.10;99.90;;;;;;4993232;28;20018;-78
2022/01/01 01:45:15;;;;;;;24.67;14.80;;;0.10;99.90;;;;;;4993283;28;20121;-80
2022/01/01 01:47:45;;;;;;;19.48;12.50;;;0.10;99.90;;;;;;4993281;28;20081;-78
2022/01/01 01:50:13;;;;;;;21.45;14.18;;;0.10;99.90;;;;;;4993173;28;20109;-79
2022/01/01 01:52:43;;;;;;;20.83;12.77;;;0.10;99.90;;;;;;4991988;28;20026;-80
2022/01/01 01:55:11;;;;;;;20.92;13.25;;;0.10;99.90;;;;;;4993078;28;20072;-80
2022/01/01 01:57:40;;;;;;;;;;;0.10;99.90;;;;;;4993261;28;20029;-80
2022/01/01 02:02:47;;;;;;;18.95;11.23;;;0.10;99.90;;;;;;4993341;28;20030;-80
2022/01/01 02:05:13;;;;;;;20.70;13.43;;;0.10;99.90;;;;;;4993016;28;20022;-80
2022/01/01 02:07:39;;;;;;;19.52;12.60;;;0.00;99.90;;;;;;4991603;28;20443;-80
2022/01/01 02:10:05;;;;;;;16.58;12.27;;;0.10;99.90;;;;;;4991618;28;20034;-80
2022/01/01 02:12:33;;;;;;;17.92;14.13;;;0.10;99.90;;;;;;4991828;28;20026;-80
2022/01/01 02:17:28;;;;;;;19.83;13.57;;;0.10;99.90;;;;;;4993601;28;20026;-80
2022/01/01 02:19:59;;;;;;;17.45;12.30;;;0.10;99.90;;;;;;4994059;28;20059;-79
2022/01/01 02:22:34;;;;;;;18.77;12.32;;;0.10;99.90;;;;;;4995986;28;20026;-80
2022/01/01 02:25:00;;;;;;;16.63;11.70;;;0.10;99.90;;;;;;4991840;28;20404;-80
2022/01/01 02:27:26;;;;;;;17.33;12.32;;;0.10;99.90;;;;;;4992951;28;20026;-79
2022/01/01 02:29:51;;;;;;;15.57;11.40;;;0.10;99.90;;;;;;4992861;28;20423;-80
2022/01/01 02:32:18;;;;;;;15.70;11.50;;;0.20;99.90;;;;;;4991707;28;20022;-80
2022/01/01 02:34:44;;;;;;;21.05;11.18;;;0.20;99.90;;;;;;4991548;28;20026;-80
2022/01/01 02:37:10;;;;;;;16.92;11.48;;;0.20;99.90;;;;;;4991448;28;20484;-80
2022/01/01 02:39:35;;;;;;;16.95;12.32;;;0.20;99.90;;;;;;4992674;28;20057;-79
2022/01/01 02:42:01;;;;;;;19.02;12.15;;;0.20;99.90;;;;;;4992174;28;20026;-79
2022/01/01 02:44:28;;;;;;;16.63;11.55;;;0.20;99.90;;;;;;5007677;28;20384;-80
2022/01/01 02:46:57;;;;;;;17.25;10.30;;;0.20;99.90;;;;;;5013529;28;20029;-78
2022/01/01 02:49:23;;;;;;;15.10;10.80;;;0.20;99.90;;;;;;4996720;28;20102;-80
2022/01/01 02:51:49;;;;;;;19.85;10.85;;;0.20;99.90;;;;;;4993907;28;20045;-79
2022/01/01 02:54:16;;;;;;;22.88;12.18;;;0.20;99.90;;;;;;4993114;28;20658;-78
2022/01/01 02:56:42;;;;;;;26.08;11.40;;;0.20;99.90;;;;;;4992373;28;20491;-78
2022/01/01 02:59:08;;;;;;;16.15;11.85;;;0.20;99.90;;;;;;4992354;28;20039;-78
2022/01/01 03:01:33;;;;;;;17.15;11.00;;;0.20;99.90;;;;;;4992322;28;20495;-79
2022/01/01 03:03:59;;;;;;;19.50;11.98;;;0.20;99.90;;;;;;4994738;28;20030;-78
2022/01/01 03:06:27;;;;;;;14.93;10.70;;;0.20;99.90;;;;;;4996249;28;20659;-80
2022/01/01 03:08:54;;;;;;;15.07;10.20;;;0.20;99.90;;;;;;4996115;28;20054;-78
2022/01/01 03:11:20;;;;;;;14.90;10.57;;;0.20;99.90;;;;;;4996024;28;20499;-78
2022/01/01 03:13:47;;;;;;;18.83;10.95;;;0.20;99.90;;;;;;4994484;28;20181;-79
2022/01/01 03:16:13;;;;;;;18.90;12.32;;;0.20;99.90;;;;;;4995879;28;20022;-79
2022/01/01 03:18:40;;;;;;;16.45;11.43;;;0.20;99.90;;;;;;4995729;28;20459;-79
2022/01/01 03:21:06;;;;;;;20.27;13.23;;;0.20;99.90;;;;;;4995777;28;20037;-78
2022/01/01 03:23:34;;;;;;;20.77;12.93;;;0.20;99.90;;;;;;4995627;28;20411;-79
2022/01/01 03:26:00;;;;;;;21.67;12.18;;;0.30;99.90;;;;;;4995668;28;20384;-79
2022/01/01 03:28:27;;;;;;;18.50;11.98;;;0.20;99.90;;;;;;4995612;28;20031;-79
2022/01/01 03:30:53;;;;;;;19.70;11.93;;;0.30;99.90;;;;;;4995567;28;20023;-79
2022/01/01 03:33:19;;;;;;;16.75;11.43;;;0.20;99.90;;;;;;4995396;28;20040;-79
2022/01/01 03:35:47;;;;;;;18.73;10.52;;;0.20;99.90;;;;;;4993081;28;20399;-78
2022/01/01 03:38:18;;;;;;;16.15;12.38;;;0.30;99.90;;;;;;4994705;28;20045;-78
2022/01/01 03:40:44;;;;;;;18.73;11.00;;;0.30;99.90;;;;;;4996269;28;20086;-80
2022/01/01 03:43:10;;;;;;;16.27;12.07;;;0.20;99.90;;;;;;4996934;28;20058;-79
2022/01/01 03:45:38;;;;;;;22.25;11.50;;;0.30;99.90;;;;;;4995909;28;20030;-81
2022/01/01 03:48:05;;;;;;;14.80;10.50;;;0.20;99.90;;;;;;4995425;28;20030;-78
2022/01/01 03:50:32;;;;;;;20.42;11.52;;;0.30;99.90;;;;;;4995049;28;20055;-80
2022/01/01 03:52:57;;;;;;;20.10;11.60;;;0.30;99.90;;;;;;4993719;28;20027;-79
2022/01/01 03:55:23;;;;;;;17.73;10.15;;;0.30;99.90;;;;;;4995031;28;20069;-79
2022/01/01 03:57:49;;;;;;;14.63;11.05;;;0.30;99.90;;;;;;4995967;28;20113;-78
2022/01/01 04:00:15;;;;;;;16.73;12.15;;;0.30;99.90;;;;;;5000392;28;20035;-79
2022/01/01 04:02:41;;;;;;;17.02;11.13;;;0.30;99.90;;;;;;4997232;28;20093;-79
2022/01/01 04:05:07;;;;;;;17.38;10.70;;;0.30;99.90;;;;;;4996031;28;20365;-78
2022/01/01 04:07:34;;;;;;;14.00;10.35;;;0.30;99.90;;;;;;4995529;28;20049;-78
2022/01/01 04:10:01;;;;;;;16.52;12.38;;;0.30;99.90;;;;;;4995707;28;20031;-81
2022/01/01 04:12:27;;;;;;;16.00;10.35;;;0.30;99.90;;;;;;4995913;28;20027;-79
2022/01/01 04:14:53;;;;;;;19.85;12.00;;;0.30;99.90;;;;;;4995566;28;20030;-80
2022/01/01 04:17:19;;;;;;;19.73;12.65;;;0.30;99.90;;;;;;4996287;28;20034;-80
2022/01/01 04:19:45;;;;;;;16.85;12.15;;;0.30;99.90;;;;;;4996073;28;20042;-80
2022/01/01 04:22:14;;;;;;;20.33;12.60;;;0.30;99.90;;;;;;4996783;28;20022;-79
2022/01/01 04:24:41;;;;;;;22.85;11.95;;;0.30;99.90;;;;;;4997325;28;20034;-80
2022/01/01 04:27:09;;;;;;;19.13;11.98;;;0.30;99.90;;;;;;4995682;28;20038;-79
2022/01/01 04:29:35;;;;;;;19.15;12.88;;;0.20;99.90;;;;;;4994490;28;20023;-80
2022/01/01 04:32:01;;;;;;;22.27;12.68;;;0.20;99.90;;;;;;4994451;28;20049;-79
2022/01/01 04:34:27;;;;;;;14.20;10.88;;;0.20;99.90;;;;;;4994438;28;20026;-78
2022/01/01 04:37:04;;;;;;;18.98;11.68;;;0.20;99.90;;;;;;4995604;28;20479;-79
2022/01/01 04:39:30;;;;;;;19.20;12.90;;;0.20;99.90;;;;;;4994876;28;20480;-80
2022/01/01 04:41:55;;;;;;;20.25;12.63;;;0.20;99.90;;;;;;4992884;28;20034;-80
2022/01/01 04:44:21;;;;;;;22.70;13.27;;;0.20;99.90;;;;;;4994168;28;20096;-80
2022/01/01 04:46:47;;;;;;;23.85;15.80;;;0.20;99.90;;;;;;4994647;28;20101;-80
2022/01/01 04:49:13;;;;;;;21.20;12.48;;;0.20;99.90;;;;;;4995501;28;20439;-78
2022/01/01 04:51:39;;;;;;;20.98;12.80;;;0.20;99.90;;;;;;5002130;28;20026;-78
2022/01/01 04:54:10;;;;;;;19.15;12.35;;;0.20;99.90;;;;;;5014745;28;20019;-80
2022/01/01 04:56:42;;;;;;;17.20;11.65;;;0.20;99.90;;;;;;5003075;28;20022;-80
2022/01/01 04:59:08;;;;;;;16.33;10.98;;;0.20;99.90;;;;;;4994787;28;20133;-79
2022/01/01 05:01:34;;;;;;;21.13;11.77;;;0.20;99.90;;;;;;4981848;28;20066;-79
2022/01/01 05:04:00;;;;;;;18.45;11.45;;;0.20;99.90;;;;;;4974907;28;20841;-80
2022/01/01 05:06:26;;;;;;;14.70;9.95;;;0.20;99.90;;;;;;4974415;28;20030;-79
2022/01/01 05:08:52;;;;;;;15.35;10.45;;;0.20;99.90;;;;;;4974358;28;20530;-78
2022/01/01 05:11:17;;;;;;;19.02;11.02;;;0.20;99.90;;;;;;4974203;28;20027;-77
2022/01/01 05:13:43;;;;;;;13.18;9.32;;;0.20;99.90;;;;;;4974213;28;20073;-78
2022/01/01 05:16:14;;;;;;;16.60;10.38;;;0.20;99.90;;;;;;4977044;28;20393;-80
2022/01/01 05:18:40;;;;;;;16.33;10.05;;;0.20;99.90;;;;;;4974364;28;20043;-80
2022/01/01 05:21:06;;;;;;;14.68;10.43;;;0.20;99.90;;;;;;4991564;28;20126;-80
2022/01/01 05:23:32;;;;;;;18.33;10.80;;;0.20;99.90;;;;;;4992224;28;20037;-79
2022/01/01 05:25:58;;;;;;;16.02;10.43;;;0.20;99.90;;;;;;4992941;28;20049;-79
2022/01/01 05:28:24;;;;;;;17.98;11.05;;;0.20;99.90;;;;;;4993281;28;20018;-80
2022/01/01 05:30:50;;;;;;;17.85;10.13;;;0.20;99.90;;;;;;4986430;28;20110;-79
2022/01/01 05:33:16;;;;;;;17.77;10.52;;;0.30;99.90;;;;;;4973587;28;20026;-80
2022/01/01 05:35:42;;;;;;;16.27;11.05;;;0.20;99.90;;;;;;4971998;28;20504;-80
2022/01/01 05:38:08;;;;;;;16.67;11.88;;;0.20;99.90;;;;;;4974363;28;20046;-79
2022/01/01 05:40:34;;;;;;;20.48;11.13;;;0.30;99.90;;;;;;4972668;28;20061;-79
2022/01/01 05:43:00;;;;;;;17.02;11.50;;;0.30;99.90;;;;;;4986984;28;20023;-79
2022/01/01 05:45:26;;;;;;;18.60;11.10;;;0.30;99.90;;;;;;4989801;28;20027;-78
2022/01/01 05:47:52;;;;;;;17.27;10.82;;;0.30;99.90;;;;;;4973623;28;20455;-78
2022/01/01 05:50:20;;;;;;;16.80;10.75;;;0.30;99.90;;;;;;4973969;28;20523;-79
2022/01/01 05:52:46;;;;;;;13.18;10.02;;;0.30;99.90;;;;;;4989806;28;20037;-78
2022/01/01 05:55:12;;;;;;;15.70;11.25;;;0.30;99.90;;;;;;4993000;28;20113;-77
2022/01/01 05:57:38;;;;;;;17.88;10.85;;;0.30;99.90;;;;;;4993296;28;20019;-78
2022/01/01 06:00:08;;;;;;;21.00;11.95;;;0.30;99.90;;;;;;4984010;28;20042;-79
2022/01/01 06:02:42;;;;;;;19.10;11.73;;;0.30;99.90;;;;;;4987544;28;20019;-80
2022/01/01 06:05:08;;;;;;;17.77;11.98;;;0.30;99.90;;;;;;5004719;28;20037;-80
2022/01/01 06:07:34;;;;;;;15.95;11.80;;;0.30;99.90;;;;;;4990619;28;20095;-81
2022/01/01 06:09:59;;;;;;;18.17;10.88;;;0.30;99.90;;;;;;4994568;28;20108;-80
2022/01/01 06:12:26;;;;;;;18.08;11.00;;;0.30;99.90;;;;;;4993243;28;20027;-80
2022/01/01 06:14:52;;;;;;;19.08;11.63;;;0.30;99.90;;;;;;4983601;28;20050;-83
2022/01/01 06:17:18;;;;;;;16.27;11.82;;;0.30;99.90;;;;;;4981836;28;20058;-82
2022/01/01 06:19:44;;;;;;;17.98;11.45;;;0.40;99.90;;;;;;4987935;28;20088;-86
2022/01/01 06:22:10;;;;;;;16.15;11.25;;;0.30;99.90;;;;;;4990455;28;20115;-83
2022/01/01 06:24:36;;;;;;;15.88;10.43;;;0.40;99.90;;;;;;4974262;28;20034;-85
2022/01/01 06:27:02;;;;;;;19.05;11.20;;;0.30;99.90;;;;;;4993206;28;20403;-85
2022/01/01 06:29:28;;;;;;;19.20;11.25;;;0.30;99.90;;;;;;4996225;28;20037;-87
2022/01/01 06:31:53;;;;;;;18.95;11.27;;;0.40;99.90;;;;;;4997069;28;20094;-82
2022/01/01 06:34:19;;;;;;;15.50;10.68;;;0.40;99.90;;;;;;5000661;28;20029;-79
2022/01/01 06:36:45;;;;;;;14.93;10.65;;;0.40;99.90;;;;;;4976314;28;20066;-81
2022/01/01 06:39:11;;;;;;;17.73;11.63;;;0.40;99.90;;;;;;4976651;28;20097;-81
2022/01/01 06:41:36;;;;;;;23.95;12.00;;;0.40;99.90;;;;;;4980520;28;20022;-81
2022/01/01 06:44:02;;;;;;;17.15;10.80;;;0.40;99.90;;;;;;4996977;28;20018;-81
2022/01/01 06:46:28;;;;;;;19.20;11.85;;;0.40;99.90;;;;;;4996977;28;20117;-80
2022/01/01 06:48:54;;;;;;;18.77;11.45;;;0.30;99.90;;;;;;4996607;28;20535;-81
2022/01/01 06:51:20;;;;;;;16.95;11.18;;;0.40;99.90;;;;;;4996078;28;20157;-81
2022/01/01 06:53:45;;;;;;;15.60;10.82;;;0.40;99.90;;;;;;5011605;28;20114;-81
2022/01/01 06:56:11;;;;;;;23.17;13.10;;;0.40;99.90;;;;;;4995653;28;20033;-81
2022/01/01 06:58:38;;;;;;;18.98;11.93;;;0.30;99.90;;;;;;4998679;28;20034;-81
2022/01/01 07:01:06;;;;;;;18.23;11.18;;;0.40;99.90;;;;;;5008377;28;20023;-80
2022/01/01 07:03:31;;;;;;;17.83;11.32;;;0.30;99.90;;;;;;5003131;28;20041;-81
2022/01/01 07:05:57;;;;;;;21.00;11.43;;;0.30;99.90;;;;;;5001686;28;20018;-80
2022/01/01 07:08:23;;;;;;;20.77;11.85;;;0.30;99.90;;;;;;5003088;28;20026;-83
2022/01/01 07:10:49;;;;;;;21.52;11.57;;;0.40;99.90;;;;;;5006398;28;20085;-83
2022/01/01 07:13:18;;;;;;;20.92;12.05;;;0.30;99.90;;;;;;5013518;28;20031;-82
2022/01/01 07:15:44;;;;;;;18.55;12.57;;;0.40;99.90;;;;;;4998055;28;20113;-82
2022/01/01 07:18:10;;;;;;;21.65;11.10;;;0.30;99.90;;;;;;4996177;28;20054;-82
2022/01/01 07:20:36;;;;;;;18.55;11.25;;;0.40;99.90;;;;;;4996247;28;20043;-81
2022/01/01 07:23:01;;;;;;;19.38;11.52;;;0.40;99.90;;;;;;4995844;28;20023;-82
2022/01/01 07:25:28;;;;;;;18.98;11.73;;;0.40;99.90;;;;;;4995033;28;20069;-82
2022/01/01 07:27:54;;;;;;;18.45;11.75;;;0.40;99.90;;;;;;4996278;28;20376;-84
2022/01/01 07:30:20;;;;;;;27.13;12.85;;;0.40;99.90;;;;;;4996041;28;20034;-83
2022/01/01 07:32:48;;;;;;;18.85;12.32;;;0.40;99.90;;;;;;4995812;28;20499;-82
2022/01/01 07:35:16;;;;;;;19.35;11.77;;;0.40;99.90;;;;;;4995607;28;20484;-83
2022/01/01 07:37:42;;;;;;;21.17;12.93;;;0.40;99.90;;;;;;4996358;28;20025;-83
2022/01/01 07:40:11;;;;;;;21.92;12.82;;;0.40;99.90;;;;;;4998496;28;20034;-82
2022/01/01 07:42:37;;;;;;;16.85;11.90;;;0.50;99.90;;;;;;4998794;28;20018;-83
2022/01/01 07:45:04;;;;;;;20.52;12.18;;;0.50;99.90;;;;;;5003641;28;20022;-82
2022/01/01 07:47:30;;;;;;;20.25;12.32;;;0.40;99.90;;;;;;5012924;28;20030;-82
2022/01/01 07:49:56;;;;;;;15.95;10.57;;;0.40;99.90;;;;;;5000306;28;20590;-85
2022/01/01 07:52:22;;;;;;;18.83;12.38;;;0.40;99.90;;;;;;4991677;28;20081;-82
2022/01/01 07:54:48;;;;;;;20.90;11.57;;;0.40;99.90;;;;;;4976064;28;20102;-83
2022/01/01 07:57:13;;;;;;;14.38;10.20;;;0.50;99.90;;;;;;4975700;28;20034;-84
2022/01/01 07:59:39;;;;;;;20.45;11.90;;;0.40;99.90;;;;;;4990582;28;20396;-82
2022/01/01 08:02:05;;;;;;;20.35;11.88;;;0.40;99.90;;;;;;4975898;28;20453;-83
2022/01/01 08:04:31;;;;;;;18.63;12.05;;;0.50;99.90;;;;;;4990555;28;20034;-83
2022/01/01 08:06:57;;;;;;;18.27;11.27;;;0.50;99.90;;;;;;4976436;28;20027;-81
2022/01/01 08:09:22;;;;;;;17.13;9.95;;;0.50;99.90;;;;;;4977312;28;20031;-82
2022/01/01 08:11:50;;;;;;;15.27;10.77;;;0.50;99.90;;;;;;4992593;28;20031;-81
2022/01/01 08:14:16;;;;;;;17.98;11.63;;;0.50;99.90;;;;;;4975087;28;20057;-82
2022/01/01 08:17:02;;;;;;;19.65;13.27;;;0.50;99.90;;;;;;4977074;28;20027;-81
2022/01/01 08:19:29;;;;;;;15.27;10.57;;;0.50;99.90;;;;;;4976669;28;20500;-84
2022/01/01 08:21:55;;;;;;;18.80;10.57;;;0.50;99.90;;;;;;4975720;28;20464;-84
2022/01/01 08:24:22;;;;;;;14.85;10.38;;;0.50;99.90;;;;;;4990776;28;20033;-83
2022/01/01 08:26:48;;;;;;;17.02;10.82;;;0.50;99.90;;;;;;4976039;28;20304;-82
2022/01/01 08:29:14;;;;;;;13.30;9.75;;;0.60;99.90;;;;;;4977157;28;20125;-81
2022/01/01 08:31:40;;;;;;;18.48;11.75;;;0.50;99.90;;;;;;4977644;28;20428;-84
2022/01/01 08:34:06;;;;;;;15.57;11.50;;;0.60;99.90;;;;;;4974761;28;20035;-82
2022/01/01 08:36:32;;;;;;;19.00;11.07;;;0.60;99.90;;;;;;4975482;28;20027;-82
2022/01/01 08:38:58;;;;;;;16.25;10.60;;;0.60;99.90;;;;;;4975976;28;20047;-82
2022/01/01 08:41:25;;;;;;;14.00;9.60;;;0.60;99.80;;;;;;4976606;28;20085;-82
2022/01/01 08:43:51;;;;;;;14.85;8.70;;;0.60;99.90;;;;;;4994516;28;20077;-83
2022/01/01 08:46:17;;;;;;;15.07;8.98;;;0.60;99.90;;;;;;4994826;28;20502;-82
2022/01/01 08:48:43;;;;;;;14.45;9.68;;;0.60;99.80;;;;;;4990364;28;20023;-80
2022/01/01 08:51:19;;;;;;;14.77;9.90;;;0.60;99.70;;;;;;4975428;28;20026;-81
2022/01/01 08:53:46;;;;;;;12.15;9.23;;;0.60;99.60;;;;;;4976099;28;20023;-82
2022/01/01 08:56:12;;;;;;;15.10;8.57;;;0.60;99.60;;;;;;4975752;28;20031;-83
2022/01/01 08:58:39;;;;;;;12.32;8.77;;;0.60;99.60;;;;;;4975469;28;20038;-82
2022/01/01 09:01:06;;;;;;;13.73;10.43;;;0.60;99.50;;;;;;4975345;28;20109;-82
2022/01/01 09:03:35;;;;;;;13.73;9.15;;;0.60;99.40;;;;;;4975540;28;20153;-81
2022/01/01 09:06:02;;;;;;;14.25;9.45;;;0.60;99.40;;;;;;4976476;28;20537;-81
2022/01/01 09:08:28;;;;;;;12.88;9.20;;;0.60;99.40;;;;;;4987458;28;20030;-82
2022/01/01 09:10:54;;;;;;;17.00;10.50;;;0.60;99.40;;;;;;5005586;28;20027;-82
2022/01/01 09:13:20;;;;;;;15.82;8.55;;;0.60;99.50;;;;;;4980901;28;20418;-83
2022/01/01 09:15:46;;;;;;;15.32;9.52;;;0.60;99.50;;;;;;4978557;28;20049;-82
2022/01/01 09:18:12;;;;;;;13.68;8.70;;;0.60;99.40;;;;;;4976926;28;20097;-82
2022/01/01 09:20:38;;;;;;;12.98;8.27;;;0.60;99.40;;;;;;4976873;28;20039;-83
2022/01/01 09:23:03;;;;;;;11.50;6.65;;;0.60;99.20;;;;;;4978248;28;20462;-83
2022/01/01 09:25:29;;;;;;;11.93;7.78;;;0.60;99.10;;;;;;4991523;28;20023;-82
2022/01/01 09:27:55;;;;;;;14.95;8.40;;;0.60;98.80;;;;;;4981526;28;20094;-82
2022/01/01 09:30:21;;;;;;;12.73;7.15;;;0.60;98.80;;;;;;4976944;28;20097;-83
2022/01/01 09:32:47;;;;;;;9.40;6.00;;;0.60;98.80;;;;;;4975183;28;20050;-83
2022/01/01 09:35:15;;;;;;;16.98;6.03;;;0.60;98.70;;;;;;4974582;28;20057;-82
2022/01/01 09:37:40;;;;;;;9.80;5.63;;;0.60;98.50;;;;;;4990759;28;20037;-83
2022/01/01 09:40:07;;;;;;;9.52;5.85;;;0.60;98.30;;;;;;4986034;28;20055;-82
2022/01/01 09:42:33;;;;;;;7.03;4.45;;;0.60;98.10;;;;;;4995164;28;20113;-83
2022/01/01 09:45:00;;;;;;;3.70;2.72;;;0.60;97.80;;;;;;4994895;28;20030;-82
2022/01/01 09:47:27;;;;;;;5.40;3.42;;;0.60;97.20;;;;;;4992004;28;20033;-82
2022/01/01 09:49:53;;;;;;;6.22;3.83;;;0.60;97.00;;;;;;4994188;28;20030;-83
2022/01/01 09:52:19;;;;;;;5.93;4.15;;;0.60;96.90;;;;;;4994905;28;20515;-83
2022/01/01 09:54:45;;;;;;;9.00;6.25;;;0.60;96.70;;;;;;4994482;28;20081;-81
2022/01/01 09:57:11;;;;;;;7.88;4.75;;;0.60;96.80;;;;;;4996328;28;20026;-82
2022/01/01 09:59:38;;;;;;;6.63;4.43;;;0.60;96.70;;;;;;4999009;28;20038;-81
2022/01/01 10:02:04;;;;;;;5.88;4.20;;;0.60;96.40;;;;;;5015566;28;20026;-81
2022/01/01 10:04:44;;;;;;;6.63;4.35;;;0.50;96.60;;;;;;5009364;28;20036;-82
2022/01/01 10:07:11;;;;;;;5.75;3.60;;;0.50;96.30;;;;;;4993325;28;20086;-84
2022/01/01 10:09:37;;;;;;;7.68;4.68;;;0.50;96.20;;;;;;4993523;28;20105;-81
2022/01/01 10:12:10;;;;;;;8.77;5.18;;;0.50;96.00;;;;;;4993296;28;20030;-81
2022/01/01 10:14:47;;;;;;;8.82;4.82;;;0.50;96.00;;;;;;4993234;28;20133;-80
2022/01/01 10:17:24;;;;;;;7.70;4.88;;;0.50;96.10;;;;;;4994638;28;20445;-81
2022/01/01 10:19:51;;;;;;;7.85;5.18;;;0.50;96.10;;;;;;5008755;28;20173;-80
2022/01/01 10:22:19;;;;;;;7.78;4.55;;;0.40;96.20;;;;;;4993715;28;20068;-82
2022/01/01 10:27:46;;;;;;;10.43;3.60;;;0.40;95.90;;;;;;4994353;28;20104;-81
2022/01/01 10:30:38;;;;;;;5.72;4.50;;;0.40;95.50;;;;;;5008181;28;20028;-80
2022/01/01 10:33:11;;;;;;;6.70;3.97;;;0.40;95.50;;;;;;4993353;28;20022;-81
2022/01/01 10:35:53;;;;;;;6.60;4.22;;;0.40;95.50;;;;;;4993132;28;20022;-81
2022/01/01 10:38:26;;;;;;;6.53;4.28;;;0.40;95.80;;;;;;5008352;28;20051;-83
2022/01/01 10:41:06;;;;;;;7.55;5.28;;;0.40;95.80;;;;;;5008678;28;20046;-81
2022/01/01 10:43:41;;;;;;;5.88;3.40;;;0.40;95.70;;;;;;5007976;28;20479;-82
2022/01/01 10:46:11;;;;;;;4.40;3.38;;;0.40;95.40;;;;;;4992574;28;20062;-82
2022/01/01 10:51:07;;;;;;;4.75;2.67;;;0.30;95.20;;;;;;4993278;28;20027;-81
2022/01/01 10:53:34;;;;;;;6.97;4.13;;;0.30;95.20;;;;;;4992925;28;20037;-82
2022/01/01 10:56:15;;;;;;;6.60;3.60;;;0.30;95.40;;;;;;4993147;28;20015;-80
2022/01/01 10:58:41;;;;;;;6.03;3.55;;;0.30;95.40;;;;;;4993305;28;20077;-82
2022/01/01 11:01:09;;;;;;;6.00;4.50;;;0.30;95.20;;;;;;4993980;28;20163;-81
2022/01/01 11:03:41;;;;;;;8.50;4.32;;;0.30;95.50;;;;;;4993917;28;20050;-82
2022/01/01 11:06:17;;;;;;;8.57;4.63;;;0.30;95.60;;;;;;4996196;28;20030;-82
2022/01/01 11:08:46;;;;;;;6.07;3.53;;;0.40;95.60;;;;;;4994086;28;20019;-83
2022/01/01 11:11:14;;;;;;;9.07;3.97;;;0.40;95.40;;;;;;4993497;28;20122;-82
2022/01/01 11:13:42;;;;;;;8.75;4.57;;;0.40;95.70;;;;;;4995296;28;20034;-81
2022/01/01 11:16:08;;;;;;;5.40;3.78;;;0.40;95.60;;;;;;5004940;28;20018;-82
2022/01/01 11:18:36;;;;;;;8.43;4.97;;;0.40;95.50;;;;;;5004683;28;20034;-82
2022/01/01 11:21:03;;;;;;;;;;;0.40;95.50;;;;;;4998738;28;20299;-81
2022/01/01 11:23:30;;;;;;;4.53;3.47;;;0.40;95.70;;;;;;4995086;28;19918;-81
2022/01/01 11:25:56;;;;;;;7.47;4.25;;;0.40;95.40;;;;;;4998065;28;20027;-80
2022/01/01 11:28:22;;;;;;;8.45;3.45;;;0.40;95.30;;;;;;4996338;28;20105;-80
2022/01/01 11:31:16;;;;;;;5.63;3.93;;;0.40;95.10;;;;;;4997209;28;20030;-81
2022/01/01 11:33:44;;;;;;;7.85;4.13;;;0.40;95.20;;;;;;4997013;28;20268;-81
2022/01/01 11:36:23;;;;;;;6.60;3.85;;;0.40;95.30;;;;;;4995820;28;20026;-81
2022/01/01 11:38:49;;;;;;;5.22;4.15;;;0.40;95.20;;;;;;4995481;28;20049;-82
2022/01/01 11:41:19;;;;;;;5.28;3.83;;;0.40;95.00;;;;;;4995739;28;20117;-81
2022/01/01 11:43:48;;;;;;;6.07;4.18;;;0.50;94.80;;;;;;4996058;28;20026;-82
2022/01/01 11:46:23;;;;;;;5.03;4.38;;;0.50;94.60;;;;;;4995480;28;20030;-81
2022/01/01 11:48:59;;;;;;;5.70;3.75;;;0.50;94.60;;;;;;4995279;28;20034;-82
2022/01/01 11:51:48;;;;;;;5.10;4.07;;;0.50;94.60;;;;;;4994368;28;20019;-81
2022/01/01 11:54:14;;;;;;;5.80;3.20;;;0.50;94.30;;;;;;4995436;28;20034;-81
2022/01/01 11:56:49;;;;;;;5.85;3.72;;;0.50;94.60;;;;;;4995532;28;20468;-82
2022/01/01 11:59:36;;;;;;;4.82;4.30;;;0.50;94.30;;;;;;4995365;28;20381;-82
2022/01/01 12:02:20;;;;;;;6.22;3.95;;;0.40;94.20;;;;;;4995836;28;20030;-82
2022/01/01 12:04:48;;;;;;;5.28;4.68;;;0.40;94.30;;;;;;4995815;28;20101;-81
2022/01/01 12:07:27;;;;;;;;;;;0.40;94.50;;;;;;4996017;28;20022;-83
2022/01/01 12:10:05;;;;;;;4.40;3.03;;;0.40;94.60;;;;;;4995405;28;20009;-80
2022/01/01 12:12:54;;;;;;;6.60;4.55;;;0.30;94.50;;;;;;4994247;28;20035;-81
2022/01/01 12:15:25;;;;;;;4.95;4.05;;;0.30;94.30;;;;;;4995401;28;20034;-82
2022/01/01 12:18:05;;;;;;;6.05;4.55;;;0.30;94.60;;;;;;4996002;28;20168;-81
2022/01/01 12:20:46;;;;;;;5.38;3.95;;;0.30;94.50;;;;;;4998536;28;20030;-81
2022/01/01 12:23:21;;;;;;;7.15;4.18;;;0.40;94.30;;;;;;5017248;28;20080;-80
2022/01/01 12:25:49;;;;;;;5.50;3.95;;;0.40;94.20;;;;;;5000545;28;20361;-83
2022/01/01 12:28:21;;;;;;;6.20;3.55;;;0.40;94.20;;;;;;4997316;28;20050;-81
2022/01/01 12:30:51;;;;;;;6.45;3.78;;;0.40;94.30;;;;;;4995444;28;20022;-82
2022/01/01 12:33:46;;;;;;;5.38;4.07;;;0.40;94.10;;;;;;4995200;28;20018;-81
2022/01/01 12:36:23;;;;;;;5.03;3.67;;;0.40;94.40;;;;;;4995262;28;20031;-80
2022/01/01 12:38:57;;;;;;;4.53;3.25;;;0.40;94.40;;;;;;4994654;28;20053;-81
2022/01/01 12:41:34;;;;;;;6.63;3.72;;;0.40;94.00;;;;;;4994849;28;20026;-82
2022/01/01 12:44:04;;;;;;;12.05;4.75;;;0.40;94.00;;;;;;4995514;28;20022;-81
2022/01/01 12:46:39;;;;;;;5.20;3.88;;;0.40;94.20;;;;;;4994832;28;20027;-82
2022/01/01 12:49:07;;;;;;;5.82;4.57;;;0.40;94.20;;;;;;4994768;28;20054;-80
2022/01/01 12:51:37;;;;;;;7.20;3.72;;;0.40;94.10;;;;;;4995093;28;20042;-79
2022/01/01 12:54:13;;;;;;;7.25;4.68;;;0.40;94.40;;;;;;4998077;28;20027;-80
2022/01/01 12:56:41;;;;;;;7.43;4.60;;;0.40;94.40;;;;;;4998162;28;20030;-81
2022/01/01 12:59:10;;;;;;;6.80;4.95;;;0.40;94.50;;;;;;4993578;28;20117;-82